sensor_id;sensor_type;location;lat;lon;timestamp;pressure;altitude;pressure_sealevel;temperature;humidity
60974;BME280;46846;51.528;5.076;2024-01-10T00:02:18;102564.38;;;-4.28;74.45
60974;BME280;46846;51.528;5.076;2024-01-10T00:04:44;102564.19;;;-4.31;74.92
60974;BME280;46846;51.528;5.076;2024-01-10T00:07:09;102565.09;;;-4.31;74.80
60974;BME280;46846;51.528;5.076;2024-01-10T00:09:34;102555.50;;;-4.32;74.95
60974;BME280;46846;51.528;5.076;2024-01-10T00:12:00;102556.31;;;-4.33;75.01
60974;BME280;46846;51.528;5.076;2024-01-10T00:14:25;102550.13;;;-4.35;74.51
60974;BME280;46846;51.528;5.076;2024-01-10T00:16:51;102539.81;;;-4.33;74.69
60974;BME280;46846;51.528;5.076;2024-01-10T00:19:16;102546.06;;;-4.30;74.99
60974;BME280;46846;51.528;5.076;2024-01-10T00:21:41;102544.13;;;-4.34;74.93
60974;BME280;46846;51.528;5.076;2024-01-10T00:24:07;102543.13;;;-4.36;74.86
60974;BME280;46846;51.528;5.076;2024-01-10T00:26:32;102547.47;;;-4.36;74.84
60974;BME280;46846;51.528;5.076;2024-01-10T00:28:58;102530.88;;;-4.39;75.40
60974;BME280;46846;51.528;5.076;2024-01-10T00:31:23;102535.34;;;-4.36;75.04
60974;BME280;46846;51.528;5.076;2024-01-10T00:33:49;102530.94;;;-4.37;75.20
60974;BME280;46846;51.528;5.076;2024-01-10T00:36:14;102533.47;;;-4.39;74.92
60974;BME280;46846;51.528;5.076;2024-01-10T00:38:40;102536.97;;;-4.38;75.26
60974;BME280;46846;51.528;5.076;2024-01-10T00:41:05;102538.59;;;-4.40;74.95
60974;BME280;46846;51.528;5.076;2024-01-10T00:43:31;102542.97;;;-4.39;75.35
60974;BME280;46846;51.528;5.076;2024-01-10T00:45:57;102534.22;;;-4.41;74.91
60974;BME280;46846;51.528;5.076;2024-01-10T00:48:22;102532.41;;;-4.42;75.00
60974;BME280;46846;51.528;5.076;2024-01-10T00:50:48;102533.22;;;-4.43;75.45
60974;BME280;46846;51.528;5.076;2024-01-10T00:53:13;102534.22;;;-4.41;75.56
60974;BME280;46846;51.528;5.076;2024-01-10T00:55:39;102533.22;;;-4.43;75.17
60974;BME280;46846;51.528;5.076;2024-01-10T00:58:04;102527.28;;;-4.41;75.15
60974;BME280;46846;51.528;5.076;2024-01-10T01:00:29;102523.00;;;-4.40;74.87
60974;BME280;46846;51.528;5.076;2024-01-10T01:02:55;102528.84;;;-4.44;74.77
60974;BME280;46846;51.528;5.076;2024-01-10T01:05:20;102526.22;;;-4.44;74.76
60974;BME280;46846;51.528;5.076;2024-01-10T01:07:46;102516.56;;;-4.47;74.92
60974;BME280;46846;51.528;5.076;2024-01-10T01:10:11;102511.44;;;-4.45;75.07
60974;BME280;46846;51.528;5.076;2024-01-10T01:12:37;102509.75;;;-4.45;75.01
60974;BME280;46846;51.528;5.076;2024-01-10T01:15:03;102509.50;;;-4.49;75.07
60974;BME280;46846;51.528;5.076;2024-01-10T01:17:28;102510.50;;;-4.47;75.12
60974;BME280;46846;51.528;5.076;2024-01-10T01:19:54;102512.28;;;-4.46;74.98
60974;BME280;46846;51.528;5.076;2024-01-10T01:22:19;102516.50;;;-4.48;75.34
60974;BME280;46846;51.528;5.076;2024-01-10T01:24:45;102516.41;;;-4.50;74.92
60974;BME280;46846;51.528;5.076;2024-01-10T01:27:10;102515.50;;;-4.50;75.16
60974;BME280;46846;51.528;5.076;2024-01-10T01:29:36;102511.94;;;-4.53;75.07
60974;BME280;46846;51.528;5.076;2024-01-10T01:32:01;102512.09;;;-4.49;75.40
60974;BME280;46846;51.528;5.076;2024-01-10T01:34:26;102511.13;;;-4.51;75.43
60974;BME280;46846;51.528;5.076;2024-01-10T01:36:52;102506.72;;;-4.53;75.17
60974;BME280;46846;51.528;5.076;2024-01-10T01:39:20;102503.50;;;-4.48;75.00
60974;BME280;46846;51.528;5.076;2024-01-10T01:41:46;102511.03;;;-4.53;74.80
60974;BME280;46846;51.528;5.076;2024-01-10T01:44:11;102503.31;;;-4.51;74.86
60974;BME280;46846;51.528;5.076;2024-01-10T01:46:36;102502.44;;;-4.52;75.02
60974;BME280;46846;51.528;5.076;2024-01-10T01:49:03;102504.75;;;-4.57;75.04
60974;BME280;46846;51.528;5.076;2024-01-10T01:51:29;102506.38;;;-4.59;75.15
60974;BME280;46846;51.528;5.076;2024-01-10T01:53:56;102512.41;;;-4.60;75.62
60974;BME280;46846;51.528;5.076;2024-01-10T01:56:22;102502.09;;;-4.58;75.46
60974;BME280;46846;51.528;5.076;2024-01-10T01:58:50;102500.22;;;-4.61;75.42
60974;BME280;46846;51.528;5.076;2024-01-10T02:01:16;102505.50;;;-4.59;75.32
60974;BME280;46846;51.528;5.076;2024-01-10T02:03:45;102506.38;;;-4.59;75.56
60974;BME280;46846;51.528;5.076;2024-01-10T02:06:11;102508.91;;;-4.60;75.31
60974;BME280;46846;51.528;5.076;2024-01-10T02:08:37;102499.31;;;-4.61;75.25
60974;BME280;46846;51.528;5.076;2024-01-10T02:11:02;102502.72;;;-4.62;75.17
60974;BME280;46846;51.528;5.076;2024-01-10T02:13:29;102499.06;;;-4.66;75.52
60974;BME280;46846;51.528;5.076;2024-01-10T02:15:55;102493.88;;;-4.66;75.88
60974;BME280;46846;51.528;5.076;2024-01-10T02:18:20;102499.16;;;-4.64;75.79
60974;BME280;46846;51.528;5.076;2024-01-10T02:20:46;102493.88;;;-4.66;75.63
60974;BME280;46846;51.528;5.076;2024-01-10T02:23:12;102495.75;;;-4.63;75.08
60974;BME280;46846;51.528;5.076;2024-01-10T02:25:39;102485.34;;;-4.63;75.54
60974;BME280;46846;51.528;5.076;2024-01-10T02:28:05;102496.72;;;-4.61;75.29
60974;BME280;46846;51.528;5.076;2024-01-10T02:30:30;102495.66;;;-4.65;75.18
60974;BME280;46846;51.528;5.076;2024-01-10T02:32:56;102492.09;;;-4.67;75.11
60974;BME280;46846;51.528;5.076;2024-01-10T02:35:21;102484.38;;;-4.65;75.21
60974;BME280;46846;51.528;5.076;2024-01-10T02:37:46;102486.81;;;-4.69;75.51
60974;BME280;46846;51.528;5.076;2024-01-10T02:40:15;102486.09;;;-4.66;75.45
60974;BME280;46846;51.528;5.076;2024-01-10T02:42:41;102481.53;;;-4.70;75.29
60974;BME280;46846;51.528;5.076;2024-01-10T02:45:06;102480.53;;;-4.72;75.71
60974;BME280;46846;51.528;5.076;2024-01-10T02:47:32;102478.75;;;-4.73;75.72
60974;BME280;46846;51.528;5.076;2024-01-10T02:49:57;102472.69;;;-4.74;75.49
60974;BME280;46846;51.528;5.076;2024-01-10T02:52:23;102484.97;;;-4.71;75.24
60974;BME280;46846;51.528;5.076;2024-01-10T02:54:48;102476.00;;;-4.76;75.88
60974;BME280;46846;51.528;5.076;2024-01-10T02:57:13;102483.88;;;-4.75;75.48
60974;BME280;46846;51.528;5.076;2024-01-10T02:59:39;102473.66;;;-4.72;75.70
60974;BME280;46846;51.528;5.076;2024-01-10T03:02:04;102472.44;;;-4.78;75.92
60974;BME280;46846;51.528;5.076;2024-01-10T03:04:30;102472.50;;;-4.77;75.64
60974;BME280;46846;51.528;5.076;2024-01-10T03:06:55;102466.19;;;-4.82;75.78
60974;BME280;46846;51.528;5.076;2024-01-10T03:09:21;102462.13;;;-4.77;75.78
60974;BME280;46846;51.528;5.076;2024-01-10T03:11:47;102462.78;;;-4.81;75.49
60974;BME280;46846;51.528;5.076;2024-01-10T03:14:12;102453.44;;;-4.77;75.61
60974;BME280;46846;51.528;5.076;2024-01-10T03:16:38;102451.66;;;-4.78;75.38
60974;BME280;46846;51.528;5.076;2024-01-10T03:19:03;102459.59;;;-4.75;75.87
60974;BME280;46846;51.528;5.076;2024-01-10T03:21:29;102456.66;;;-4.82;75.39
60974;BME280;46846;51.528;5.076;2024-01-10T03:23:58;102450.66;;;-4.81;75.69
60974;BME280;46846;51.528;5.076;2024-01-10T03:26:25;102450.84;;;-4.77;75.41
60974;BME280;46846;51.528;5.076;2024-01-10T03:28:51;102447.34;;;-4.78;75.63
60974;BME280;46846;51.528;5.076;2024-01-10T03:31:17;102441.91;;;-4.83;75.46
60974;BME280;46846;51.528;5.076;2024-01-10T03:33:42;102454.16;;;-4.80;75.63
60974;BME280;46846;51.528;5.076;2024-01-10T03:36:11;102453.44;;;-4.77;74.91
60974;BME280;46846;51.528;5.076;2024-01-10T03:38:36;102450.66;;;-4.81;74.95
60974;BME280;46846;51.528;5.076;2024-01-10T03:41:02;102449.59;;;-4.84;75.38
60974;BME280;46846;51.528;5.076;2024-01-10T03:43:27;102443.59;;;-4.83;75.47
60974;BME280;46846;51.528;5.076;2024-01-10T03:45:53;102435.81;;;-4.83;75.80
60974;BME280;46846;51.528;5.076;2024-01-10T03:48:18;102438.97;;;-4.89;75.46
60974;BME280;46846;51.528;5.076;2024-01-10T03:50:44;102438.16;;;-4.88;76.03
60974;BME280;46846;51.528;5.076;2024-01-10T03:53:10;102433.06;;;-4.86;75.18
60974;BME280;46846;51.528;5.076;2024-01-10T03:55:35;102429.03;;;-4.96;76.32
60974;BME280;46846;51.528;5.076;2024-01-10T03:58:00;102426.78;;;-4.90;75.52
60974;BME280;46846;51.528;5.076;2024-01-10T04:00:26;102423.38;;;-4.89;75.45
60974;BME280;46846;51.528;5.076;2024-01-10T04:02:52;102418.19;;;-4.89;75.51
60974;BME280;46846;51.528;5.076;2024-01-10T04:05:18;102419.81;;;-4.91;74.47
60974;BME280;46846;51.528;5.076;2024-01-10T04:07:44;102425.00;;;-4.91;75.41
60974;BME280;46846;51.528;5.076;2024-01-10T04:10:10;102426.69;;;-4.91;74.75
60974;BME280;46846;51.528;5.076;2024-01-10T04:12:37;102421.25;;;-4.96;75.58
60974;BME280;46846;51.528;5.076;2024-01-10T04:15:05;102425.63;;;-4.95;75.46
60974;BME280;46846;51.528;5.076;2024-01-10T04:17:31;102423.03;;;-4.95;75.80
60974;BME280;46846;51.528;5.076;2024-01-10T04:19:57;102426.44;;;-4.96;75.70
60974;BME280;46846;51.528;5.076;2024-01-10T04:22:26;102416.72;;;-5.00;75.86
60974;BME280;46846;51.528;5.076;2024-01-10T04:24:51;102415.19;;;-4.97;75.81
60974;BME280;46846;51.528;5.076;2024-01-10T04:27:17;102416.72;;;-5.00;76.01
60974;BME280;46846;51.528;5.076;2024-01-10T04:29:45;102411.59;;;-4.99;75.78
60974;BME280;46846;51.528;5.076;2024-01-10T04:32:11;102418.41;;;-5.01;75.99
60974;BME280;46846;51.528;5.076;2024-01-10T04:34:36;102415.09;;;-4.98;75.98
60974;BME280;46846;51.528;5.076;2024-01-10T04:37:02;102410.06;;;-4.95;75.69
60974;BME280;46846;51.528;5.076;2024-01-10T04:39:28;102411.44;;;-5.02;75.85
60974;BME280;46846;51.528;5.076;2024-01-10T04:41:53;102405.34;;;-5.02;76.17
60974;BME280;46846;51.528;5.076;2024-01-10T04:44:19;102409.75;;;-5.01;75.90
60974;BME280;46846;51.528;5.076;2024-01-10T04:46:44;102404.56;;;-5.01;75.85
60974;BME280;46846;51.528;5.076;2024-01-10T04:49:09;102410.53;;;-5.02;76.04
60974;BME280;46846;51.528;5.076;2024-01-10T04:51:35;102409.81;;;-5.00;76.03
60974;BME280;46846;51.528;5.076;2024-01-10T04:54:00;102411.28;;;-5.05;75.83
60974;BME280;46846;51.528;5.076;2024-01-10T04:56:26;102412.16;;;-5.04;75.76
60974;BME280;46846;51.528;5.076;2024-01-10T04:58:51;102411.44;;;-5.02;75.69
60974;BME280;46846;51.528;5.076;2024-01-10T05:01:17;102406.81;;;-5.08;75.71
60974;BME280;46846;51.528;5.076;2024-01-10T05:03:43;102402.84;;;-5.01;75.80
60974;BME280;46846;51.528;5.076;2024-01-10T05:06:08;102400.16;;;-5.02;75.36
60974;BME280;46846;51.528;5.076;2024-01-10T05:08:33;102407.88;;;-5.04;75.67
60974;BME280;46846;51.528;5.076;2024-01-10T05:10:59;102406.88;;;-5.06;75.63
60974;BME280;46846;51.528;5.076;2024-01-10T05:13:24;102405.91;;;-5.08;75.83
60974;BME280;46846;51.528;5.076;2024-01-10T05:15:50;102408.59;;;-5.06;75.51
60974;BME280;46846;51.528;5.076;2024-01-10T05:18:16;102401.53;;;-5.09;75.74
60974;BME280;46846;51.528;5.076;2024-01-10T05:20:42;102406.72;;;-5.09;76.14
60974;BME280;46846;51.528;5.076;2024-01-10T05:23:07;102406.00;;;-5.06;75.81
60974;BME280;46846;51.528;5.076;2024-01-10T05:25:32;102400.81;;;-5.06;75.25
60974;BME280;46846;51.528;5.076;2024-01-10T05:27:58;102405.19;;;-5.05;75.57
60974;BME280;46846;51.528;5.076;2024-01-10T05:30:23;102400.72;;;-5.08;75.69
60974;BME280;46846;51.528;5.076;2024-01-10T05:32:49;102405.03;;;-5.09;76.05
60974;BME280;46846;51.528;5.076;2024-01-10T05:35:14;102406.00;;;-5.06;75.62
60974;BME280;46846;51.528;5.076;2024-01-10T05:37:40;102402.34;;;-5.10;75.76
60974;BME280;46846;51.528;5.076;2024-01-10T05:40:06;102404.13;;;-5.09;75.46
60974;BME280;46846;51.528;5.076;2024-01-10T05:42:31;102400.72;;;-5.08;76.07
60974;BME280;46846;51.528;5.076;2024-01-10T05:44:58;102405.03;;;-5.09;75.41
60974;BME280;46846;51.528;5.076;2024-01-10T05:47:23;102403.22;;;-5.10;75.86
60974;BME280;46846;51.528;5.076;2024-01-10T05:49:49;102404.13;;;-5.09;74.94
60974;BME280;46846;51.528;5.076;2024-01-10T05:52:14;102405.03;;;-5.09;75.71
60974;BME280;46846;51.528;5.076;2024-01-10T05:54:39;102399.66;;;-5.12;75.27
60974;BME280;46846;51.528;5.076;2024-01-10T05:57:05;102396.09;;;-5.14;75.63
60974;BME280;46846;51.528;5.076;2024-01-10T05:59:30;102403.78;;;-5.15;75.80
60974;BME280;46846;51.528;5.076;2024-01-10T06:01:56;102402.91;;;-5.16;75.75
60974;BME280;46846;51.528;5.076;2024-01-10T06:04:24;102397.88;;;-5.13;75.98
60974;BME280;46846;51.528;5.076;2024-01-10T06:06:49;102403.63;;;-5.18;76.05
60974;BME280;46846;51.528;5.076;2024-01-10T06:09:14;102391.75;;;-5.13;76.08
60974;BME280;46846;51.528;5.076;2024-01-10T06:11:43;102399.50;;;-5.15;75.36
60974;BME280;46846;51.528;5.076;2024-01-10T06:14:09;102408.34;;;-5.11;75.63
60974;BME280;46846;51.528;5.076;2024-01-10T06:16:34;102392.50;;;-5.16;75.30
60974;BME280;46846;51.528;5.076;2024-01-10T06:19:00;102390.53;;;-5.20;75.63
60974;BME280;46846;51.528;5.076;2024-01-10T06:21:25;102389.09;;;-5.15;75.38
60974;BME280;46846;51.528;5.076;2024-01-10T06:23:51;102396.44;;;-5.23;75.63
60974;BME280;46846;51.528;5.076;2024-01-10T06:26:16;102392.16;;;-5.22;75.87
60974;BME280;46846;51.528;5.076;2024-01-10T06:28:42;102391.34;;;-5.21;75.47
60974;BME280;46846;51.528;5.076;2024-01-10T06:31:08;102387.69;;;-5.25;75.94
60974;BME280;46846;51.528;5.076;2024-01-10T06:33:33;102386.78;;;-5.25;75.90
60974;BME280;46846;51.528;5.076;2024-01-10T06:35:58;102385.97;;;-5.24;75.78
60974;BME280;46846;51.528;5.076;2024-01-10T06:38:24;102388.50;;;-5.26;75.93
60974;BME280;46846;51.528;5.076;2024-01-10T06:40:49;102392.78;;;-5.26;75.86
60974;BME280;46846;51.528;5.076;2024-01-10T06:43:15;102391.00;;;-5.27;76.22
60974;BME280;46846;51.528;5.076;2024-01-10T06:45:41;102387.44;;;-5.29;76.40
60974;BME280;46846;51.528;5.076;2024-01-10T06:48:07;102382.25;;;-5.29;75.92
60974;BME280;46846;51.528;5.076;2024-01-10T06:50:32;102390.19;;;-5.26;76.09
60974;BME280;46846;51.528;5.076;2024-01-10T06:52:58;102384.13;;;-5.27;75.50
60974;BME280;46846;51.528;5.076;2024-01-10T06:55:23;102390.19;;;-5.26;75.88
60974;BME280;46846;51.528;5.076;2024-01-10T06:57:49;102395.38;;;-5.26;75.67
60974;BME280;46846;51.528;5.076;2024-01-10T07:00:21;102397.09;;;-5.27;75.76
60974;BME280;46846;51.528;5.076;2024-01-10T07:02:47;102399.75;;;-5.25;75.82
60974;BME280;46846;51.528;5.076;2024-01-10T07:05:14;102396.03;;;-5.30;76.14
60974;BME280;46846;51.528;5.076;2024-01-10T07:07:40;102398.78;;;-5.27;75.50
60974;BME280;46846;51.528;5.076;2024-01-10T07:10:05;102397.00;;;-5.28;75.85
60974;BME280;46846;51.528;5.076;2024-01-10T07:12:32;102400.56;;;-5.26;75.81
60974;BME280;46846;51.528;5.076;2024-01-10T07:14:58;102400.13;;;-5.19;74.03
60974;BME280;46846;51.528;5.076;2024-01-10T07:17:23;102402.53;;;-5.22;73.90
60974;BME280;46846;51.528;5.076;2024-01-10T07:19:49;102397.88;;;-5.28;75.06
60974;BME280;46846;51.528;5.076;2024-01-10T07:22:14;102406.22;;;-5.33;75.29
60974;BME280;46846;51.528;5.076;2024-01-10T07:24:40;102402.81;;;-5.32;75.71
60974;BME280;46846;51.528;5.076;2024-01-10T07:27:05;102406.16;;;-5.35;75.61
60974;BME280;46846;51.528;5.076;2024-01-10T07:29:32;102412.22;;;-5.35;75.85
60974;BME280;46846;51.528;5.076;2024-01-10T07:31:57;102406.41;;;-5.30;75.32
60974;BME280;46846;51.528;5.076;2024-01-10T07:34:23;102398.28;;;-5.37;75.77
60974;BME280;46846;51.528;5.076;2024-01-10T07:36:48;102394.72;;;-5.39;75.73
60974;BME280;46846;51.528;5.076;2024-01-10T07:39:14;102399.00;;;-5.39;75.73
60974;BME280;46846;51.528;5.076;2024-01-10T07:41:44;102394.63;;;-5.40;76.02
60974;BME280;46846;51.528;5.076;2024-01-10T07:44:09;102387.66;;;-5.41;76.23
60974;BME280;46846;51.528;5.076;2024-01-10T07:46:35;102397.13;;;-5.42;75.93
60974;BME280;46846;51.528;5.076;2024-01-10T07:49:03;102393.66;;;-5.42;75.82
60974;BME280;46846;51.528;5.076;2024-01-10T07:51:29;102390.06;;;-5.44;76.13
60974;BME280;46846;51.528;5.076;2024-01-10T07:53:55;102398.09;;;-5.40;75.84
60974;BME280;46846;51.528;5.076;2024-01-10T07:56:21;102392.75;;;-5.43;75.95
60974;BME280;46846;51.528;5.076;2024-01-10T07:58:47;102388.53;;;-5.41;76.01
60974;BME280;46846;51.528;5.076;2024-01-10T08:01:12;102393.72;;;-5.41;76.21
60974;BME280;46846;51.528;5.076;2024-01-10T08:03:37;102395.44;;;-5.41;75.61
60974;BME280;46846;51.528;5.076;2024-01-10T08:06:03;102396.41;;;-5.39;75.93
60974;BME280;46846;51.528;5.076;2024-01-10T08:08:28;102394.19;;;-5.48;76.29
60974;BME280;46846;51.528;5.076;2024-01-10T08:10:56;102392.84;;;-5.41;75.95
60974;BME280;46846;51.528;5.076;2024-01-10T08:13:21;102398.09;;;-5.40;74.22
60974;BME280;46846;51.528;5.076;2024-01-10T08:15:47;102404.56;;;-5.48;76.25
60974;BME280;46846;51.528;5.076;2024-01-10T08:18:12;102406.34;;;-5.47;76.00
60974;BME280;46846;51.528;5.076;2024-01-10T08:20:39;102412.44;;;-5.46;76.00
60974;BME280;46846;51.528;5.076;2024-01-10T08:23:04;102416.09;;;-5.43;76.00
60974;BME280;46846;51.528;5.076;2024-01-10T08:25:30;102411.97;;;-5.39;75.61
60974;BME280;46846;51.528;5.076;2024-01-10T08:27:55;102410.34;;;-5.37;74.82
60974;BME280;46846;51.528;5.076;2024-01-10T08:30:23;102417.78;;;-5.43;75.11
60974;BME280;46846;51.528;5.076;2024-01-10T08:32:48;102417.06;;;-5.41;74.23
60974;BME280;46846;51.528;5.076;2024-01-10T08:35:14;102411.81;;;-5.42;73.66
60974;BME280;46846;51.528;5.076;2024-01-10T08:37:40;102418.69;;;-5.43;74.57
60974;BME280;46846;51.528;5.076;2024-01-10T08:40:10;102421.28;;;-5.43;71.72
60974;BME280;46846;51.528;5.076;2024-01-10T08:42:37;102415.13;;;-5.45;69.81
60974;BME280;46846;51.528;5.076;2024-01-10T08:45:03;102407.78;;;-5.52;73.85
60974;BME280;46846;51.528;5.076;2024-01-10T08:47:29;102408.66;;;-5.52;73.39
60974;BME280;46846;51.528;5.076;2024-01-10T08:49:58;102412.28;;;-5.50;73.68
60974;BME280;46846;51.528;5.076;2024-01-10T08:52:23;102418.16;;;-5.52;74.53
60974;BME280;46846;51.528;5.076;2024-01-10T08:54:49;102411.34;;;-5.50;74.58
60974;BME280;46846;51.528;5.076;2024-01-10T08:57:14;102417.25;;;-5.53;74.78
60974;BME280;46846;51.528;5.076;2024-01-10T08:59:43;102412.97;;;-5.52;75.17
60974;BME280;46846;51.528;5.076;2024-01-10T09:02:08;102416.91;;;-5.44;73.01
60974;BME280;46846;51.528;5.076;2024-01-10T09:04:33;102411.53;;;-5.47;74.23
60974;BME280;46846;51.528;5.076;2024-01-10T09:06:59;102413.34;;;-5.46;73.35
60974;BME280;46846;51.528;5.076;2024-01-10T09:09:24;102420.47;;;-5.42;67.82
60974;BME280;46846;51.528;5.076;2024-01-10T09:11:50;102424.78;;;-5.42;67.69
60974;BME280;46846;51.528;5.076;2024-01-10T09:14:15;102424.59;;;-5.45;71.36
60974;BME280;46846;51.528;5.076;2024-01-10T09:16:40;102420.22;;;-5.46;72.35
60974;BME280;46846;51.528;5.076;2024-01-10T09:19:06;102421.13;;;-5.46;71.71
60974;BME280;46846;51.528;5.076;2024-01-10T09:21:31;102421.19;;;-5.44;67.25
60974;BME280;46846;51.528;5.076;2024-01-10T09:23:57;102423.78;;;-5.44;68.41
60974;BME280;46846;51.528;5.076;2024-01-10T09:26:22;102417.63;;;-5.46;69.00
60974;BME280;46846;51.528;5.076;2024-01-10T09:28:48;102430.69;;;-5.45;67.73
60974;BME280;46846;51.528;5.076;2024-01-10T09:31:13;102430.50;;;-5.48;65.26
60974;BME280;46846;51.528;5.076;2024-01-10T09:33:40;102427.72;;;-5.51;67.22
60974;BME280;46846;51.528;5.076;2024-01-10T09:36:05;102433.91;;;-5.49;65.62
60974;BME280;46846;51.528;5.076;2024-01-10T09:38:37;102430.13;;;-5.54;65.58
60974;BME280;46846;51.528;5.076;2024-01-10T09:41:03;102433.38;;;-5.58;71.45
60974;BME280;46846;51.528;5.076;2024-01-10T09:43:32;102432.41;;;-5.60;68.50
60974;BME280;46846;51.528;5.076;2024-01-10T09:46:00;102431.59;;;-5.59;69.76
60974;BME280;46846;51.528;5.076;2024-01-10T09:48:26;102437.59;;;-5.60;69.32
60974;BME280;46846;51.528;5.076;2024-01-10T09:50:52;102438.56;;;-5.58;66.34
60974;BME280;46846;51.528;5.076;2024-01-10T09:53:25;102443.66;;;-5.60;70.36
60974;BME280;46846;51.528;5.076;2024-01-10T09:55:55;102441.97;;;-5.59;70.99
60974;BME280;46846;51.528;5.076;2024-01-10T09:58:23;102443.03;;;-5.56;68.92
60974;BME280;46846;51.528;5.076;2024-01-10T10:00:50;102439.28;;;-5.61;69.80
60974;BME280;46846;51.528;5.076;2024-01-10T10:03:17;102436.56;;;-5.63;73.17
60974;BME280;46846;51.528;5.076;2024-01-10T10:05:43;102440.34;;;-5.57;71.22
60974;BME280;46846;51.528;5.076;2024-01-10T10:08:13;102439.63;;;-5.55;72.37
60974;BME280;46846;51.528;5.076;2024-01-10T10:10:48;102438.72;;;-5.55;69.93
60974;BME280;46846;51.528;5.076;2024-01-10T10:13:25;102440.50;;;-5.54;68.75
60974;BME280;46846;51.528;5.076;2024-01-10T10:16:01;102436.22;;;-5.54;69.92
60974;BME280;46846;51.528;5.076;2024-01-10T10:18:30;102433.63;;;-5.54;70.25
60974;BME280;46846;51.528;5.076;2024-01-10T10:23:32;102423.16;;;-5.55;69.76
60974;BME280;46846;51.528;5.076;2024-01-10T10:25:58;102430.13;;;-5.54;69.47
60974;BME280;46846;51.528;5.076;2024-01-10T10:28:28;102430.31;;;-5.51;67.37
60974;BME280;46846;51.528;5.076;2024-01-10T10:30:54;102434.53;;;-5.53;69.63
60974;BME280;46846;51.528;5.076;2024-01-10T10:33:20;102428.53;;;-5.52;69.44
60974;BME280;46846;51.528;5.076;2024-01-10T10:35:46;102431.19;;;-5.51;70.31
60974;BME280;46846;51.528;5.076;2024-01-10T10:38:11;102436.06;;;-5.57;72.31
60974;BME280;46846;51.528;5.076;2024-01-10T10:40:37;102436.41;;;-5.51;68.41
60974;BME280;46846;51.528;5.076;2024-01-10T10:43:04;102430.31;;;-5.51;70.31
60974;BME280;46846;51.528;5.076;2024-01-10T10:45:31;102422.19;;;-5.57;73.55
60974;BME280;46846;51.528;5.076;2024-01-10T10:48:00;102423.09;;;-5.57;72.09
60974;BME280;46846;51.528;5.076;2024-01-10T10:50:28;102413.69;;;-5.55;73.00
60974;BME280;46846;51.528;5.076;2024-01-10T10:52:55;102421.03;;;-5.47;69.76
60974;BME280;46846;51.528;5.076;2024-01-10T10:55:25;102406.34;;;-5.47;72.41
60974;BME280;46846;51.528;5.076;2024-01-10T10:57:52;102410.81;;;-5.44;72.43
60974;BME280;46846;51.528;5.076;2024-01-10T11:00:20;102410.75;;;-5.46;73.50
60974;BME280;46846;51.528;5.076;2024-01-10T11:02:47;102410.19;;;-5.40;70.79
60974;BME280;46846;51.528;5.076;2024-01-10T11:05:12;102418.06;;;-5.39;71.19
60974;BME280;46846;51.528;5.076;2024-01-10T11:07:39;102417.41;;;-5.35;69.81
60974;BME280;46846;51.528;5.076;2024-01-10T11:10:12;102413.28;;;-5.31;67.00
60974;BME280;46846;51.528;5.076;2024-01-10T11:23:51;102403.81;;;-5.30;69.19
60974;BME280;46846;51.528;5.076;2024-01-10T11:26:19;102402.41;;;-5.40;73.01
60974;BME280;46846;51.528;5.076;2024-01-10T11:28:45;102394.97;;;-5.34;66.09
60974;BME280;46846;51.528;5.076;2024-01-10T11:31:13;102392.38;;;-5.34;70.48
60974;BME280;46846;51.528;5.076;2024-01-10T11:33:42;102389.94;;;-5.31;69.23
60974;BME280;46846;51.528;5.076;2024-01-10T11:36:17;102387.50;;;-5.28;68.37
60974;BME280;46846;51.528;5.076;2024-01-10T11:46:34;102384.53;;;-5.19;64.57
60974;BME280;46846;51.528;5.076;2024-01-10T11:49:00;102379.34;;;-5.19;65.59
60974;BME280;46846;51.528;5.076;2024-01-10T11:51:25;102366.38;;;-5.19;64.77
60974;BME280;46846;51.528;5.076;2024-01-10T11:53:51;102368.16;;;-5.18;63.26
60974;BME280;46846;51.528;5.076;2024-01-10T11:56:18;102369.16;;;-5.16;62.90
60974;BME280;46846;51.528;5.076;2024-01-10T12:01:19;102368.34;;;-5.15;64.20
60974;BME280;46846;51.528;5.076;2024-01-10T12:03:46;102369.06;;;-5.17;66.95
60974;BME280;46846;51.528;5.076;2024-01-10T12:06:14;102359.75;;;-5.14;64.14
60974;BME280;46846;51.528;5.076;2024-01-10T12:08:40;102349.50;;;-5.11;61.52
60974;BME280;46846;51.528;5.076;2024-01-10T12:11:05;102354.56;;;-5.14;67.18
60974;BME280;46846;51.528;5.076;2024-01-10T12:13:30;102356.34;;;-5.13;67.09
60974;BME280;46846;51.528;5.076;2024-01-10T12:15:59;102352.44;;;-5.04;60.88
60974;BME280;46846;51.528;5.076;2024-01-10T12:18:24;102350.41;;;-5.10;67.45
60974;BME280;46846;51.528;5.076;2024-01-10T12:20:49;102342.63;;;-5.10;65.08
60974;BME280;46846;51.528;5.076;2024-01-10T12:23:15;102347.25;;;-5.04;62.36
60974;BME280;46846;51.528;5.076;2024-01-10T12:25:40;102338.41;;;-5.08;67.30
60974;BME280;46846;51.528;5.076;2024-01-10T12:28:06;102346.28;;;-5.06;64.01
60974;BME280;46846;51.528;5.076;2024-01-10T12:30:31;102346.38;;;-5.05;64.72
60974;BME280;46846;51.528;5.076;2024-01-10T12:32:59;102344.66;;;-5.04;67.11
60974;BME280;46846;51.528;5.076;2024-01-10T12:35:25;102348.31;;;-5.01;61.84
60974;BME280;46846;51.528;5.076;2024-01-10T12:37:54;102346.78;;;-4.97;61.07
60974;BME280;46846;51.528;5.076;2024-01-10T12:40:23;102349.53;;;-4.94;60.66
60974;BME280;46846;51.528;5.076;2024-01-10T12:42:48;102341.84;;;-4.92;60.06
60974;BME280;46846;51.528;5.076;2024-01-10T12:45:21;102346.31;;;-4.90;59.02
60974;BME280;46846;51.528;5.076;2024-01-10T12:47:47;102347.13;;;-4.91;61.05
60974;BME280;46846;51.528;5.076;2024-01-10T12:50:12;102334.13;;;-4.91;59.76
60974;BME280;46846;51.528;5.076;2024-01-10T12:52:39;102338.41;;;-4.91;60.58
60974;BME280;46846;51.528;5.076;2024-01-10T12:55:05;102335.69;;;-4.95;63.03
60974;BME280;46846;51.528;5.076;2024-01-10T12:57:31;102336.56;;;-4.94;62.78
60974;BME280;46846;51.528;5.076;2024-01-10T12:59:57;102336.63;;;-4.92;64.07
60974;BME280;46846;51.528;5.076;2024-01-10T13:02:22;102335.09;;;-4.89;60.98
60974;BME280;46846;51.528;5.076;2024-01-10T13:04:47;102336.72;;;-4.91;61.39
60974;BME280;46846;51.528;5.076;2024-01-10T13:07:13;102333.47;;;-4.87;60.23
60974;BME280;46846;51.528;5.076;2024-01-10T13:09:38;102337.94;;;-4.84;60.90